Time;durP1;ratioP1;P1;durP2;ratioP2;P2;SDS_P1;SDS_P2;PMS_P1;PMS_P2;Temp;Humidity;BMP_temperature;BMP_pressure;BME280_temperature;BME280_humidity;BME280_pressure;Samples;Min_cycle;Max_cycle;Signal;HPM_P1;HPM_P2
2021/12/04 00:00:42;;;;;;;4.72;2.35;;;3.60;99.90;;;;;;4916554;28;91653;-77
2021/12/04 00:03:07;;;;;;;2.97;2.50;;;3.70;99.90;;;;;;4917517;28;89626;-77
2021/12/04 00:05:33;;;;;;;3.97;2.42;;;3.60;99.90;;;;;;4915989;28;93145;-77
2021/12/04 00:07:59;;;;;;;4.28;2.72;;;3.60;99.90;;;;;;4916881;28;89530;-76
2021/12/04 00:10:28;;;;;;;3.80;2.65;;;3.70;99.90;;;;;;4918164;28;90157;-77
2021/12/04 00:12:54;;;;;;;5.20;2.65;;;3.70;99.90;;;;;;4916662;28;90238;-77
2021/12/04 00:15:19;;;;;;;3.40;2.10;;;3.70;99.90;;;;;;4916648;28;92029;-76
2021/12/04 00:17:45;;;;;;;3.55;2.40;;;3.70;99.90;;;;;;4918777;28;89395;-77
2021/12/04 00:20:11;;;;;;;3.97;2.45;;;3.80;99.90;;;;;;4917530;28;92980;-77
2021/12/04 00:22:38;;;;;;;3.75;2.55;;;3.80;99.90;;;;;;4918771;28;89252;-77
2021/12/04 00:25:05;;;;;;;4.13;2.17;;;3.80;99.90;;;;;;4920323;28;89361;-76
2021/12/04 00:27:31;;;;;;;3.05;2.00;;;3.80;99.90;;;;;;4922795;28;89374;-76
2021/12/04 00:29:58;;;;;;;3.28;2.20;;;3.80;99.90;;;;;;4924634;28;89644;-75
2021/12/04 05:13:30;;;;;;;11.15;6.25;;;3.10;99.90;;;;;;4940129;28;90301;-76
2021/12/04 05:15:58;;;;;;;10.50;6.10;;;3.10;99.90;;;;;;4941407;28;89931;-77
2021/12/04 05:21:04;;;;;;;12.98;6.00;;;3.20;99.90;;;;;;4940335;28;89680;-77
2021/12/04 05:23:38;;;;;;;11.65;6.18;;;3.20;99.90;;;;;;4940379;28;89284;-77
2021/12/04 05:26:06;;;;;;;13.95;6.40;;;3.20;99.90;;;;;;4940101;28;90993;-77
2021/12/04 05:28:32;;;;;;;12.05;6.53;;;3.20;99.90;;;;;;4940791;28;89594;-77
2021/12/04 05:30:58;;;;;;;11.48;6.35;;;3.20;99.90;;;;;;4940640;28;89936;-77
2021/12/04 05:33:24;;;;;;;11.77;6.40;;;3.20;99.90;;;;;;4940508;28;90050;-77
2021/12/04 05:35:50;;;;;;;12.40;6.43;;;3.30;99.90;;;;;;4940145;28;89467;-77
2021/12/04 05:38:17;;;;;;;9.98;5.82;;;3.30;99.90;;;;;;4938764;28;90333;-77
2021/12/04 05:40:43;;;;;;;8.63;5.57;;;3.30;99.90;;;;;;4940202;28;90159;-77
2021/12/04 05:43:10;;;;;;;9.38;5.88;;;3.30;99.90;;;;;;4938768;28;92801;-77
2021/12/04 05:45:43;;;;;;;11.25;6.40;;;3.30;99.90;;;;;;4938448;28;92039;-77
2021/12/04 05:48:29;;;;;;;9.77;5.85;;;3.40;99.90;;;;;;4940495;28;89307;-76
2021/12/04 05:51:13;;;;;;;13.27;6.07;;;3.40;99.90;;;;;;4938348;28;91735;-77
2021/12/04 05:53:56;;;;;;;10.32;5.95;;;3.40;99.90;;;;;;4940259;28;90128;-77
2021/12/04 05:56:22;;;;;;;11.40;5.63;;;3.40;99.90;;;;;;4939193;28;89091;-77
2021/12/04 05:58:49;;;;;;;12.82;7.07;;;3.50;99.90;;;;;;4940230;28;89310;-77
2021/12/04 06:01:16;;;;;;;10.52;6.25;;;3.50;99.90;;;;;;4939268;28;89414;-77
2021/12/04 06:03:42;;;;;;;11.82;6.03;;;3.50;99.90;;;;;;4939053;28;90961;-77
2021/12/04 06:06:07;;;;;;;11.05;6.28;;;3.50;99.90;;;;;;4938426;28;93454;-77
2021/12/04 06:08:33;;;;;;;11.45;6.63;;;3.50;99.90;;;;;;4938582;28;89392;-77
2021/12/04 06:10:59;;;;;;;13.02;6.57;;;3.50;99.90;;;;;;4939716;28;90253;-77
2021/12/04 06:13:25;;;;;;;10.85;5.50;;;3.50;99.90;;;;;;4937830;28;91404;-76
2021/12/04 06:15:52;;;;;;;10.00;5.82;;;3.50;99.90;;;;;;4939175;28;90924;-76
2021/12/04 06:18:18;;;;;;;9.68;5.80;;;3.50;99.90;;;;;;4939866;28;89286;-76
2021/12/04 06:23:29;;;;;;;12.32;6.85;;;3.50;99.90;;;;;;4939801;28;90052;-76
2021/12/04 06:25:55;;;;;;;15.00;6.43;;;3.50;99.90;;;;;;4939623;28;89264;-76
2021/12/04 06:28:21;;;;;;;12.98;7.25;;;3.50;99.90;;;;;;4939373;28;90122;-76
2021/12/04 06:30:47;;;;;;;10.63;6.43;;;3.50;99.90;;;;;;4939434;28;90134;-76
2021/12/04 06:33:18;;;;;;;12.75;6.68;;;3.50;99.90;;;;;;4938209;28;92419;-76
2021/12/04 06:35:46;;;;;;;11.57;7.13;;;3.60;99.90;;;;;;4939593;28;89256;-76
2021/12/04 06:38:13;;;;;;;13.57;7.28;;;3.50;99.90;;;;;;4939790;28;89712;-76
2021/12/04 06:40:40;;;;;;;12.95;7.50;;;3.50;99.90;;;;;;4939199;28;89172;-76
2021/12/04 06:43:06;;;;;;;12.70;7.47;;;3.50;99.90;;;;;;4938858;28;90383;-76
2021/12/04 06:45:35;;;;;;;12.82;8.23;;;3.50;99.90;;;;;;4939750;28;90027;-76
2021/12/04 06:48:06;;;;;;;13.43;7.95;;;3.50;99.90;;;;;;4937970;28;89361;-76
2021/12/04 06:50:41;;;;;;;13.40;8.20;;;3.50;99.90;;;;;;4937753;28;89427;-76
2021/12/04 06:53:25;;;;;;;11.40;7.13;;;3.60;99.90;;;;;;4938937;28;91445;-76
2021/12/04 06:55:54;;;;;;;13.18;7.78;;;3.50;99.90;;;;;;4939312;28;91603;-76
2021/12/04 06:58:20;;;;;;;14.00;7.97;;;3.60;99.90;;;;;;4939350;28;89245;-76
2021/12/04 07:00:46;;;;;;;14.27;8.23;;;3.60;99.90;;;;;;4936688;28;92947;-77
2021/12/04 07:03:12;;;;;;;15.82;8.82;;;3.60;99.90;;;;;;4937821;28;92075;-77
2021/12/04 07:05:37;;;;;;;16.98;8.57;;;3.60;99.90;;;;;;4938853;28;89171;-76
2021/12/04 07:08:05;;;;;;;16.58;8.63;;;3.60;99.90;;;;;;4937675;28;89758;-76
2021/12/04 07:10:32;;;;;;;17.00;7.80;;;3.70;99.90;;;;;;4939161;28;89656;-76
2021/12/04 07:12:57;;;;;;;17.05;8.77;;;3.70;99.90;;;;;;4938961;28;89276;-76
2021/12/04 07:15:26;;;;;;;17.10;9.02;;;3.70;99.90;;;;;;4938828;28;89792;-77
2021/12/04 07:17:52;;;;;;;19.60;9.32;;;3.70;99.90;;;;;;4937246;28;90744;-77
2021/12/04 07:20:18;;;;;;;15.80;9.00;;;3.70;99.90;;;;;;4938704;28;89647;-77
2021/12/04 07:22:43;;;;;;;15.57;9.02;;;3.80;99.90;;;;;;4938746;28;90456;-77
2021/12/04 07:25:09;;;;;;;17.52;9.13;;;3.80;99.90;;;;;;4938649;28;89778;-77
2021/12/04 07:27:35;;;;;;;19.33;9.88;;;3.80;99.90;;;;;;4939325;28;89482;-78
2021/12/04 07:30:00;;;;;;;19.95;10.00;;;3.80;99.90;;;;;;4939070;28;89952;-77
2021/12/04 07:32:27;;;;;;;19.58;10.68;;;3.80;99.90;;;;;;4936749;28;92516;-77
2021/12/04 07:34:53;;;;;;;18.90;10.40;;;3.80;99.90;;;;;;4936583;28;92663;-77
2021/12/04 07:37:20;;;;;;;18.85;10.40;;;3.80;99.90;;;;;;4936540;28;89365;-77
2021/12/04 07:39:46;;;;;;;23.33;10.70;;;3.80;99.90;;;;;;4938055;28;89392;-77
2021/12/04 07:42:11;;;;;;;18.60;10.35;;;3.80;99.90;;;;;;4937172;28;91468;-77
2021/12/04 07:44:37;;;;;;;21.10;10.57;;;3.80;99.90;;;;;;4937810;28;90646;-77
2021/12/04 07:47:03;;;;;;;17.23;10.48;;;3.90;99.90;;;;;;4938077;28;89311;-77
2021/12/04 07:49:28;;;;;;;18.13;10.52;;;3.90;99.90;;;;;;4937525;28;90207;-77
2021/12/04 07:51:54;;;;;;;16.13;9.13;;;4.00;99.90;;;;;;4937707;28;89993;-77
2021/12/04 07:54:19;;;;;;;18.70;9.80;;;4.00;99.90;;;;;;4937823;28;90136;-77
2021/12/04 07:56:45;;;;;;;15.32;8.80;;;4.10;99.90;;;;;;4941435;28;89234;-77
2021/12/04 07:59:11;;;;;;;18.50;9.75;;;4.10;99.90;;;;;;4940527;28;92569;-77
2021/12/04 08:01:37;;;;;;;15.60;9.63;;;4.10;99.90;;;;;;4941159;28;89336;-76
2021/12/04 08:04:04;;;;;;;17.15;9.05;;;4.10;99.90;;;;;;4939766;28;89559;-76
2021/12/04 08:06:33;;;;;;;18.92;10.80;;;4.20;99.90;;;;;;4939865;28;90299;-76
2021/12/04 08:08:59;;;;;;;16.23;9.73;;;4.20;99.90;;;;;;4939495;28;91880;-76
2021/12/04 08:11:28;;;;;;;21.20;11.20;;;4.20;99.90;;;;;;4941543;28;90038;-76
2021/12/04 08:13:53;;;;;;;22.55;10.60;;;4.30;99.90;;;;;;4939109;28;92847;-76
2021/12/04 08:16:24;;;;;;;20.77;11.07;;;4.40;99.90;;;;;;4941165;28;89345;-76
2021/12/04 08:18:52;;;;;;;21.95;11.85;;;4.40;99.90;;;;;;4940821;28;92959;-76
2021/12/04 08:21:19;;;;;;;21.67;10.57;;;4.50;99.90;;;;;;4940583;28;90416;-77
2021/12/04 08:23:45;;;;;;;19.63;10.05;;;4.50;99.90;;;;;;4941185;28;89872;-77
2021/12/04 08:26:11;;;;;;;21.23;11.10;;;4.60;99.90;;;;;;4939647;28;89327;-77
2021/12/04 08:28:36;;;;;;;17.63;10.43;;;4.60;99.90;;;;;;4940874;28;90216;-76
2021/12/04 08:31:02;;;;;;;17.77;10.27;;;4.70;99.90;;;;;;4940292;28;90957;-76
2021/12/04 08:33:28;;;;;;;16.52;10.05;;;4.70;99.90;;;;;;4940999;28;90839;-76
2021/12/04 08:35:54;;;;;;;20.33;10.02;;;4.70;99.90;;;;;;4939610;28;89280;-76
2021/12/04 08:38:20;;;;;;;16.13;8.85;;;4.80;99.90;;;;;;4941513;28;89336;-76
2021/12/04 08:40:45;;;;;;;14.27;8.77;;;4.70;99.90;;;;;;4941406;28;89334;-76
2021/12/04 08:43:12;;;;;;;13.65;8.20;;;4.80;99.90;;;;;;4940176;28;92881;-78
2021/12/04 08:45:39;;;;;;;14.75;9.55;;;4.90;99.90;;;;;;4941657;28;89775;-81
2021/12/04 08:48:06;;;;;;;17.13;9.50;;;4.90;99.90;;;;;;4941951;28;93351;-79
2021/12/04 08:50:33;;;;;;;10.13;6.85;;;4.90;99.90;;;;;;4940869;28;90239;-78
2021/12/04 08:53:01;;;;;;;11.25;7.40;;;5.00;99.90;;;;;;4941497;28;89343;-77
2021/12/04 08:55:28;;;;;;;11.82;7.50;;;5.10;99.90;;;;;;4939254;28;90301;-78
2021/12/04 08:57:54;;;;;;;12.05;6.75;;;5.20;99.90;;;;;;4941023;28;90174;-77
2021/12/04 09:00:34;;;;;;;12.00;7.43;;;5.20;99.90;;;;;;4940994;28;89953;-77
2021/12/04 09:03:04;;;;;;;12.45;6.93;;;5.30;99.90;;;;;;4940031;28;91688;-78
2021/12/04 09:05:30;;;;;;;12.23;7.10;;;5.30;99.90;;;;;;4940934;28;89290;-78
2021/12/04 09:07:56;;;;;;;13.10;7.00;;;5.30;99.90;;;;;;4940299;28;90295;-76
2021/12/04 09:10:22;;;;;;;9.48;5.40;;;5.30;99.90;;;;;;4938316;28;91739;-77
2021/12/04 09:12:50;;;;;;;10.02;6.30;;;5.30;99.90;;;;;;4939623;28;89194;-76
2021/12/04 09:15:19;;;;;;;9.63;6.13;;;5.30;99.90;;;;;;4939717;28;89241;-75
2021/12/04 09:17:45;;;;;;;10.95;6.35;;;5.40;99.90;;;;;;4940861;28;89333;-76
2021/12/04 09:20:12;;;;;;;8.50;5.60;;;5.50;99.90;;;;;;4940349;28;91415;-76
2021/12/04 09:22:39;;;;;;;10.82;6.47;;;5.50;99.90;;;;;;4940501;28;90278;-76
2021/12/04 09:25:12;;;;;;;9.85;5.53;;;5.50;99.90;;;;;;4940207;28;89267;-77
2021/12/04 09:35:50;;;;;;;9.38;5.50;;;5.70;99.90;;;;;;4932501;28;89471;-76
2021/12/04 10:19:11;;;;;;;7.25;4.60;;;6.30;99.90;;;;;;4940124;28;89465;-77
2021/12/04 10:21:49;;;;;;;7.28;4.72;;;6.30;99.90;;;;;;4941024;28;90308;-78
2021/12/04 10:32:39;;;;;;;7.18;4.45;;;6.50;99.90;;;;;;4941231;28;89411;-78
2021/12/04 10:35:08;;;;;;;8.52;4.18;;;6.60;99.90;;;;;;4938856;28;91834;-77
2021/12/04 10:37:37;;;;;;;5.00;3.53;;;6.60;99.90;;;;;;4939675;28;89298;-78
2021/12/04 10:40:08;;;;;;;4.82;3.50;;;6.80;99.90;;;;;;4939837;28;90347;-77
2021/12/04 10:42:57;;;;;;;5.60;3.67;;;6.80;99.90;;;;;;4940555;28;89699;-76
2021/12/04 10:45:36;;;;;;;6.80;4.35;;;6.80;99.90;;;;;;4939466;28;92774;-75
2021/12/04 10:48:07;;;;;;;5.65;3.53;;;6.90;99.90;;;;;;4939462;28;92437;-79
2021/12/04 10:53:05;;;;;;;5.65;3.78;;;6.80;99.90;;;;;;4938648;28;89381;-76
2021/12/04 11:00:41;;;;;;;7.18;4.50;;;7.00;99.90;;;;;;4939293;28;89403;-75
2021/12/04 11:03:58;;;;;;;5.47;3.83;;;6.90;99.90;;;;;;4926690;28;92496;-78
2021/12/04 11:40:24;;;;;;;17.77;13.18;;;7.10;99.90;;;;;;4934319;28;89233;-76
2021/12/04 11:45:14;;;;;;;8.02;5.10;;;7.20;99.90;;;;;;4926291;28;89489;-74
2021/12/04 11:47:44;;;;;;;5.70;4.03;;;7.20;99.90;;;;;;4934918;28;90237;-74
2021/12/04 11:50:29;;;;;;;9.48;4.30;;;7.20;99.90;;;;;;4924096;28;90951;-75
2021/12/04 11:53:03;;;;;;;8.15;5.80;;;7.30;99.90;;;;;;4925908;28;92008;-76
2021/12/04 11:55:33;;;;;;;10.60;5.75;;;7.30;99.90;;;;;;4931024;28;91101;-76
2021/12/04 11:57:59;;;;;;;7.90;5.03;;;7.30;99.90;;;;;;4936046;28;89691;-74
2021/12/04 12:00:33;;;;;;;10.30;5.53;;;7.30;99.90;;;;;;4928845;28;90382;-75
2021/12/04 12:03:09;;;;;;;9.45;5.60;;;7.30;99.90;;;;;;4918677;28;91664;-76
2021/12/04 12:05:57;;;;;;;8.27;5.38;;;7.40;99.90;;;;;;4928780;28;89335;-79
2021/12/04 12:08:27;;;;;;;18.83;9.13;;;7.40;99.90;;;;;;4928259;28;89216;-74
2021/12/04 12:10:57;;;;;;;14.60;7.57;;;7.40;99.90;;;;;;4936437;28;89355;-79
2021/12/04 12:13:37;;;;;;;6.32;4.28;;;7.50;99.90;;;;;;4919659;28;92538;-76
2021/12/04 12:16:09;;;;;;;5.82;3.72;;;7.50;99.90;;;;;;4938017;28;89309;-76
2021/12/04 12:18:58;;;;;;;9.23;4.82;;;7.40;99.90;;;;;;4938424;28;89092;-75
2021/12/04 12:21:31;;;;;;;5.55;4.00;;;7.50;99.90;;;;;;4936418;28;91771;-75
2021/12/04 12:25:13;;;;;;;8.60;5.85;;;7.50;99.90;;;;;;4938131;28;89419;-76
2021/12/04 12:27:16;;;;;;;10.70;7.55;;;7.50;99.90;;;;;;4927901;28;90180;-75
2021/12/04 12:33:04;;;;;;;12.02;8.05;;;7.40;99.90;;;;;;4936235;28;89518;-76
2021/12/04 12:38:33;;;;;;;11.85;8.20;;;7.30;99.90;;;;;;4938123;28;89410;-77
2021/12/04 12:41:07;;;;;;;11.38;8.00;;;7.30;99.90;;;;;;4936364;28;89238;-75
2021/12/04 12:43:47;;;;;;;11.73;8.20;;;7.30;99.90;;;;;;4939403;28;90247;-76
2021/12/04 12:46:14;;;;;;;10.50;6.82;;;7.30;99.90;;;;;;4930570;28;91879;-76
2021/12/04 12:48:46;;;;;;;10.77;7.15;;;7.40;99.90;;;;;;4921313;28;89386;-79
2021/12/04 12:51:11;;;;;;;7.63;6.13;;;7.40;99.90;;;;;;4922109;28;89474;-79
2021/12/04 12:53:44;;;;;;;9.57;5.40;;;7.40;99.90;;;;;;4921897;28;90247;-80
2021/12/04 12:56:13;;;;;;;10.10;6.05;;;7.40;99.90;;;;;;4920433;28;93348;-76
2021/12/04 13:13:38;;;;;;;11.48;7.50;;;7.60;99.90;;;;;;4931417;28;89410;-78
2021/12/04 13:16:14;;;;;;;10.32;7.28;;;7.60;99.90;;;;;;4929021;28;91708;-78
2021/12/04 13:18:40;;;;;;;9.55;7.53;;;7.70;99.90;;;;;;4929152;28;90137;-79
2021/12/04 13:21:09;;;;;;;13.35;7.88;;;7.70;99.90;;;;;;4938700;28;90133;-78
2021/12/04 13:23:38;;;;;;;10.48;7.43;;;7.70;99.90;;;;;;4941011;28;89478;-79
2021/12/04 13:26:11;;;;;;;11.18;7.68;;;7.80;99.90;;;;;;4941913;28;89353;-79
2021/12/04 13:28:42;;;;;;;8.65;6.70;;;7.80;99.90;;;;;;4938215;28;94784;-80
2021/12/04 13:31:08;;;;;;;11.82;6.80;;;7.80;99.90;;;;;;4933562;28;89338;-76
2021/12/04 13:33:37;;;;;;;9.68;6.53;;;7.90;99.90;;;;;;4934446;28;90200;-80
2021/12/04 13:36:11;;;;;;;9.20;5.88;;;7.90;99.90;;;;;;4930391;28;92601;-79
2021/12/04 13:38:37;;;;;;;6.72;4.70;;;7.80;99.90;;;;;;4928156;28;89076;-78
2021/12/04 13:41:02;;;;;;;6.50;5.20;;;7.90;99.90;;;;;;4932420;28;89352;-78
2021/12/04 13:43:28;;;;;;;6.97;5.05;;;7.90;99.90;;;;;;4926156;28;89833;-77
2021/12/04 13:46:03;;;;;;;6.45;5.05;;;7.90;99.90;;;;;;4925814;28;90786;-79
2021/12/04 13:48:31;;;;;;;8.60;4.40;;;8.00;99.90;;;;;;4942630;28;92646;-78
2021/12/04 13:50:59;;;;;;;6.30;4.90;;;8.00;99.90;;;;;;4936293;28;89251;-79
2021/12/04 13:53:31;;;;;;;7.10;4.80;;;8.00;99.90;;;;;;4944467;28;91617;-79
2021/12/04 13:56:07;;;;;;;9.25;5.70;;;8.00;99.90;;;;;;4939322;28;89376;-79
2021/12/04 13:58:33;;;;;;;9.43;5.53;;;8.00;99.90;;;;;;4932961;28;89281;-79
2021/12/04 14:01:01;;;;;;;9.25;5.50;;;8.00;99.90;;;;;;4940171;28;89400;-79
2021/12/04 14:03:29;;;;;;;11.05;6.72;;;8.00;99.90;;;;;;4936694;28;92744;-79
2021/12/04 14:05:54;;;;;;;8.82;6.00;;;8.00;99.90;;;;;;4931263;28;89625;-79
2021/12/04 14:08:20;;;;;;;9.18;5.95;;;8.00;99.90;;;;;;4936082;28;90701;-79
2021/12/04 14:10:48;;;;;;;14.20;6.93;;;8.00;99.90;;;;;;4925197;28;90413;-77
2021/12/04 14:13:17;;;;;;;9.45;6.03;;;8.00;99.90;;;;;;4935728;28;89423;-76
2021/12/04 14:15:44;;;;;;;7.70;4.10;;;8.00;99.90;;;;;;4929429;28;90230;-78
2021/12/04 14:18:13;;;;;;;7.40;4.50;;;8.00;99.90;;;;;;4927551;28;89275;-80
2021/12/04 14:20:41;;;;;;;7.18;5.05;;;8.00;99.90;;;;;;4930826;28;89346;-80
2021/12/04 14:23:08;;;;;;;5.50;3.83;;;8.10;99.90;;;;;;4938499;28;89219;-79
2021/12/04 14:25:42;;;;;;;4.93;3.90;;;8.10;99.90;;;;;;4924766;28;92760;-78
2021/12/04 14:28:08;;;;;;;5.97;4.38;;;8.10;99.90;;;;;;4940448;28;88968;-78
2021/12/04 14:30:35;;;;;;;8.80;4.68;;;8.10;99.90;;;;;;4933165;28;89201;-82
2021/12/04 14:33:05;;;;;;;7.15;4.32;;;8.10;99.90;;;;;;4933242;28;93207;-78
2021/12/04 14:35:36;;;;;;;6.72;4.38;;;8.10;99.90;;;;;;4932754;28;94092;-79
2021/12/04 14:38:06;;;;;;;9.90;5.38;;;8.10;99.90;;;;;;4929142;28;95211;-82
2021/12/04 14:40:36;;;;;;;9.32;5.65;;;8.10;99.90;;;;;;4935327;28;89256;-80
2021/12/04 14:43:05;;;;;;;10.80;7.47;;;8.10;99.90;;;;;;4943357;28;89660;-79
2021/12/04 14:45:33;;;;;;;10.75;6.50;;;8.10;99.90;;;;;;4944851;28;90336;-82
2021/12/04 14:48:08;;;;;;;9.63;5.95;;;8.10;99.90;;;;;;4949697;28;89353;-81
2021/12/04 14:50:37;;;;;;;9.57;5.97;;;8.10;99.90;;;;;;4943120;28;89318;-86
2021/12/04 14:53:05;;;;;;;5.50;3.40;;;8.20;99.90;;;;;;4921961;28;91438;-78
2021/12/04 14:55:34;;;;;;;7.53;4.70;;;8.30;99.90;;;;;;4928113;28;90055;-79
2021/12/04 14:58:01;;;;;;;8.52;4.90;;;8.30;99.90;;;;;;4927046;28;89703;-78
2021/12/04 15:00:36;;;;;;;6.22;3.38;;;8.40;99.90;;;;;;4909056;28;90973;-80
2021/12/04 15:03:10;;;;;;;6.50;4.40;;;8.40;99.90;;;;;;4929258;28;89434;-80
2021/12/04 15:05:39;;;;;;;4.82;3.50;;;8.40;99.90;;;;;;4926074;28;90474;-80
2021/12/04 15:08:09;;;;;;;6.00;3.58;;;8.50;99.90;;;;;;4934249;28;89275;-78
2021/12/04 15:10:34;;;;;;;7.30;3.67;;;8.50;99.90;;;;;;4920655;28;89423;-80
2021/12/04 15:13:00;;;;;;;4.45;2.65;;;8.40;99.90;;;;;;4920717;28;89402;-78
2021/12/04 15:15:29;;;;;;;2.90;2.10;;;8.40;99.90;;;;;;4919991;28;93497;-79
2021/12/04 15:18:00;;;;;;;4.28;2.60;;;8.40;99.90;;;;;;4921287;28;90100;-78
2021/12/04 15:20:34;;;;;;;3.28;2.00;;;8.50;99.90;;;;;;4921464;28;89184;-79
2021/12/04 15:23:04;;;;;;;2.72;1.90;;;8.50;99.90;;;;;;4919310;28;91513;-80
2021/12/04 15:25:33;;;;;;;3.83;2.45;;;8.60;99.90;;;;;;4919395;28;95063;-81
2021/12/04 15:27:59;;;;;;;2.75;2.05;;;8.60;99.90;;;;;;4920787;28;91023;-77
2021/12/04 15:30:26;;;;;;;2.85;2.10;;;8.70;99.90;;;;;;4920041;28;89312;-80
2021/12/04 15:32:52;;;;;;;4.07;2.10;;;8.70;99.90;;;;;;4921612;28;90138;-76
2021/12/04 15:35:34;;;;;;;4.93;2.50;;;8.60;99.90;;;;;;4920301;28;89878;-77
2021/12/04 15:38:11;;;;;;;3.45;2.78;;;8.70;99.90;;;;;;4921028;28;89189;-78
2021/12/04 15:40:50;;;;;;;4.15;2.90;;;8.70;99.90;;;;;;4921225;28;89188;-79
2021/12/04 15:54:09;;;;;;;2.97;2.53;;;8.50;99.90;;;;;;4911120;28;91521;-75
2021/12/04 15:56:44;;;;;;;3.88;2.70;;;8.50;99.90;;;;;;4936673;28;90074;-75
2021/12/04 15:59:23;;;;;;;3.45;2.67;;;8.50;99.90;;;;;;4924162;28;89821;-81
2021/12/04 16:01:52;;;;;;;3.63;2.92;;;8.50;99.90;;;;;;4928717;28;89355;-78
2021/12/04 16:04:27;;;;;;;3.75;2.90;;;8.50;99.90;;;;;;4931422;28;92365;-80
2021/12/04 16:06:54;;;;;;;6.63;3.33;;;8.50;99.90;;;;;;4923738;28;90433;-80
2021/12/04 16:09:31;;;;;;;4.63;3.20;;;8.50;99.90;;;;;;4937474;28;92391;-82
2021/12/04 16:12:06;;;;;;;3.95;2.70;;;8.50;99.90;;;;;;4929096;28;89245;-81
2021/12/04 16:14:34;;;;;;;5.53;4.50;;;8.50;99.90;;;;;;4927853;28;91979;-79
2021/12/04 16:17:03;;;;;;;6.32;4.38;;;8.50;99.90;;;;;;4937741;28;91077;-80
2021/12/04 16:19:30;;;;;;;3.50;2.80;;;8.50;99.90;;;;;;4927103;28;92443;-77
2021/12/04 16:22:00;;;;;;;4.10;2.58;;;8.50;99.90;;;;;;4944557;28;89591;-82
2021/12/04 16:24:28;;;;;;;3.45;2.35;;;8.50;99.90;;;;;;4931058;28;93692;-80
2021/12/04 16:27:31;;;;;;;2.35;2.15;;;8.60;99.90;;;;;;4924569;28;90669;-82
2021/12/04 16:29:53;;;;;;;3.03;2.22;;;8.60;99.90;;;;;;4927604;28;89433;-83
2021/12/04 16:35:20;;;;;;;4.75;2.80;;;8.60;99.90;;;;;;4937282;28;88828;-81
2021/12/04 16:37:47;;;;;;;2.55;2.35;;;8.60;99.90;;;;;;4929152;28;90427;-79
2021/12/04 16:40:15;;;;;;;4.45;2.75;;;8.60;99.90;;;;;;4932479;28;91573;-81
2021/12/04 16:42:41;;;;;;;2.97;2.25;;;8.60;99.90;;;;;;4935534;28;90210;-79
2021/12/04 16:45:11;;;;;;;4.13;3.00;;;8.60;99.90;;;;;;4925404;28;92475;-79
2021/12/04 16:47:43;;;;;;;3.45;2.20;;;8.60;99.90;;;;;;4922838;28;91639;-79
2021/12/04 16:50:15;;;;;;;6.32;3.30;;;8.60;99.90;;;;;;4932635;28;89211;-79
2021/12/04 16:58:14;;;;;;;19.38;9.27;;;8.60;99.90;;;;;;4930577;28;89318;-79
2021/12/04 17:00:44;;;;;;;6.22;3.75;;;8.60;99.90;;;;;;4929658;28;92271;-80
2021/12/04 17:03:10;;;;;;;2.08;1.70;;;8.60;99.90;;;;;;4936208;28;90259;-80
2021/12/04 17:05:37;;;;;;;23.55;12.10;;;8.60;99.90;;;;;;4936943;28;91535;-77
2021/12/04 17:08:03;;;;;;;3.78;2.80;;;8.60;99.90;;;;;;4935895;28;91521;-77
2021/12/04 17:10:29;;;;;;;7.47;4.63;;;8.60;99.90;;;;;;4937199;28;92228;-78
2021/12/04 17:12:56;;;;;;;3.42;2.10;;;8.50;99.90;;;;;;4932089;28;89176;-77
2021/12/04 17:15:21;;;;;;;3.33;2.15;;;8.60;99.90;;;;;;4935953;28;91671;-78
2021/12/04 17:17:48;;;;;;;5.82;3.75;;;8.50;99.90;;;;;;4929164;28;90365;-79
2021/12/04 17:20:19;;;;;;;4.03;3.03;;;8.60;99.90;;;;;;4929995;28;90097;-80
2021/12/04 17:22:50;;;;;;;3.05;1.90;;;8.60;99.90;;;;;;4933361;28;89416;-76
2021/12/04 17:25:17;;;;;;;2.88;1.80;;;8.60;99.90;;;;;;4945444;28;92035;-80
2021/12/04 17:27:43;;;;;;;2.33;1.60;;;8.60;99.90;;;;;;4945980;28;93167;-77
2021/12/04 17:30:11;;;;;;;4.18;1.70;;;8.70;99.90;;;;;;4941781;28;89173;-79
2021/12/04 17:32:38;;;;;;;3.53;1.63;;;8.60;99.90;;;;;;4928260;28;90506;-76
2021/12/04 17:35:05;;;;;;;2.40;1.70;;;8.70;99.90;;;;;;4921910;28;90276;-81
2021/12/04 17:37:32;;;;;;;2.00;1.60;;;8.60;99.90;;;;;;4924134;28;92100;-78
2021/12/04 17:39:58;;;;;;;3.08;1.77;;;8.60;99.90;;;;;;4924695;28;92109;-78
2021/12/04 17:42:24;;;;;;;2.15;1.67;;;8.50;99.90;;;;;;4925293;28;89140;-79
2021/12/04 17:44:53;;;;;;;3.90;1.80;;;8.60;99.90;;;;;;4922937;28;92619;-79
2021/12/04 17:47:20;;;;;;;2.58;1.73;;;8.60;99.90;;;;;;4923972;28;89590;-80
2021/12/04 17:49:49;;;;;;;3.00;2.00;;;8.60;99.90;;;;;;4923589;28;89453;-79
2021/12/04 17:52:15;;;;;;;2.17;1.60;;;8.40;99.90;;;;;;4922719;28;89182;-76
2021/12/04 17:54:41;;;;;;;3.47;1.40;;;8.40;99.90;;;;;;4920912;28;91364;-77
2021/12/04 17:57:07;;;;;;;1.83;1.40;;;8.50;99.90;;;;;;4919237;28;93195;-78
2021/12/04 17:59:33;;;;;;;2.03;1.50;;;8.40;99.90;;;;;;4921241;28;90967;-77
2021/12/04 18:02:09;;;;;;;4.53;1.50;;;8.20;99.90;;;;;;4919942;28;89239;-77
2021/12/04 18:04:59;;;;;;;2.03;1.70;;;8.10;99.90;;;;;;4927518;28;89869;-77
2021/12/04 18:07:32;;;;;;;2.20;1.48;;;8.10;99.90;;;;;;4944191;28;89304;-77
2021/12/04 18:10:21;;;;;;;3.65;1.92;;;8.00;99.90;;;;;;4926716;28;92387;-77
2021/12/04 18:12:51;;;;;;;2.13;1.20;;;8.00;99.90;;;;;;4920718;28;89730;-78
2021/12/04 18:15:24;;;;;;;1.30;1.10;;;7.90;99.90;;;;;;4919586;28;93850;-78
2021/12/04 18:17:50;;;;;;;1.83;1.30;;;7.90;99.90;;;;;;4919689;28;92889;-78
2021/12/04 18:20:17;;;;;;;2.47;1.73;;;7.80;99.90;;;;;;4919436;28;91482;-77
2021/12/04 18:22:42;;;;;;;1.95;1.25;;;7.80;99.90;;;;;;4920215;28;90357;-79
2021/12/04 18:25:08;;;;;;;1.48;1.17;;;7.80;99.90;;;;;;4920780;28;92815;-78
2021/12/04 18:27:35;;;;;;;4.13;2.22;;;7.80;99.90;;;;;;4934380;28;90198;-79
2021/12/04 18:30:22;;;;;;;1.98;1.77;;;7.70;99.90;;;;;;4935832;28;92500;-78
2021/12/04 18:32:47;;;;;;;1.50;1.30;;;7.60;99.90;;;;;;4921950;28;89397;-78
2021/12/04 18:35:15;;;;;;;1.65;1.20;;;7.60;99.90;;;;;;4922287;28;89271;-78
2021/12/04 18:37:42;;;;;;;3.33;1.30;;;7.50;99.90;;;;;;4924838;28;89271;-81
2021/12/04 18:40:12;;;;;;;1.40;1.27;;;7.50;99.90;;;;;;4929403;28;88981;-80
2021/12/04 18:42:39;;;;;;;2.58;1.33;;;7.50;99.90;;;;;;4927200;28;89778;-79
2021/12/04 18:45:07;;;;;;;1.42;1.33;;;7.50;99.90;;;;;;4925655;28;90769;-79
2021/12/04 18:47:33;;;;;;;2.78;1.60;;;7.50;99.90;;;;;;4925770;28;90354;-79
2021/12/04 18:49:58;;;;;;;1.45;1.20;;;7.50;99.90;;;;;;4927216;28;89890;-80
2021/12/04 18:52:24;;;;;;;1.50;1.20;;;7.50;99.90;;;;;;4928900;28;89171;-79
2021/12/04 18:54:50;;;;;;;1.60;1.35;;;7.40;99.90;;;;;;4926777;28;92402;-81
2021/12/04 18:57:16;;;;;;;1.40;1.20;;;7.40;99.90;;;;;;4924202;28;92909;-77
2021/12/04 18:59:43;;;;;;;1.77;1.55;;;7.40;99.90;;;;;;4919835;28;89307;-78
2021/12/04 19:02:13;;;;;;;2.40;1.60;;;7.30;99.90;;;;;;4920742;28;89520;-78
2021/12/04 19:04:39;;;;;;;1.77;0.90;;;7.30;99.90;;;;;;4921533;28;90113;-77
2021/12/04 19:07:04;;;;;;;1.80;0.90;;;7.30;99.90;;;;;;4921472;28;89412;-77
2021/12/04 19:09:30;;;;;;;1.30;0.98;;;7.20;99.90;;;;;;4922278;28;89164;-78
2021/12/04 19:12:00;;;;;;;0.98;0.80;;;7.20;99.90;;;;;;4920932;28;90338;-78
2021/12/04 19:14:27;;;;;;;1.92;1.00;;;7.20;99.90;;;;;;4921202;28;91223;-78
2021/12/04 19:16:52;;;;;;;1.08;0.98;;;7.10;99.90;;;;;;4921091;28;89422;-78
2021/12/04 19:19:18;;;;;;;1.00;0.90;;;7.00;99.90;;;;;;4921452;28;90211;-78
2021/12/04 19:21:44;;;;;;;1.70;1.00;;;7.00;99.90;;;;;;4921652;28;89296;-78
2021/12/04 19:24:09;;;;;;;1.35;1.10;;;7.00;99.90;;;;;;4920679;28;91223;-78
2021/12/04 19:26:36;;;;;;;1.35;1.00;;;6.90;99.90;;;;;;4921508;28;89199;-77
2021/12/04 19:29:05;;;;;;;2.75;1.35;;;6.90;99.90;;;;;;4922108;28;89695;-78
2021/12/04 19:31:38;;;;;;;3.38;1.55;;;6.90;99.90;;;;;;4921855;28;89327;-78
2021/12/04 19:34:18;;;;;;;3.03;1.27;;;6.90;99.90;;;;;;4921991;28;90257;-78
2021/12/04 19:53:29;;;;;;;1.30;1.05;;;6.80;99.90;;;;;;4920134;28;89303;-78
2021/12/04 19:56:06;;;;;;;1.63;1.30;;;6.80;99.90;;;;;;4920641;28;89670;-77
2021/12/04 19:58:52;;;;;;;2.40;1.00;;;6.70;99.90;;;;;;4920652;28;90457;-77
2021/12/04 20:04:08;;;;;;;2.08;1.20;;;6.70;99.90;;;;;;4920644;28;90574;-77
2021/12/04 20:06:47;;;;;;;1.10;1.00;;;6.70;99.90;;;;;;4923912;28;89345;-78
2021/12/04 20:14:47;;;;;;;1.13;0.90;;;6.30;99.90;;;;;;4922398;28;89264;-78
2021/12/04 20:17:13;;;;;;;5.47;1.08;;;6.10;99.90;;;;;;4921322;28;90992;-78
2021/12/04 20:19:39;;;;;;;1.30;1.10;;;6.00;99.90;;;;;;4919793;28;92768;-78
2021/12/04 20:22:06;;;;;;;1.42;1.10;;;5.90;99.90;;;;;;4920029;28;92910;-78
2021/12/04 20:24:37;;;;;;;1.77;1.23;;;5.80;99.90;;;;;;4922080;28;89307;-78
2021/12/04 20:27:06;;;;;;;1.83;1.40;;;5.70;99.90;;;;;;4921205;28;89681;-78
2021/12/04 20:32:21;;;;;;;1.77;1.40;;;5.70;99.90;;;;;;4920468;28;90506;-78
2021/12/04 20:40:53;;;;;;;2.65;1.70;;;5.60;99.90;;;;;;4937456;28;89223;-78
2021/12/04 21:03:39;;;;;;;3.13;2.20;;;5.40;99.90;;;;;;4919003;28;89639;-78
2021/12/04 21:26:16;;;;;;;16.90;8.20;;;5.30;99.90;;;;;;4919617;28;89242;-78